Time;durP1;ratioP1;P1;durP2;ratioP2;P2;SDS_P1;SDS_P2;PMS_P1;PMS_P2;Temp;Humidity;BMP_temperature;BMP_pressure;BME280_temperature;BME280_humidity;BME280_pressure;Samples;Min_cycle;Max_cycle;Signal;HPM_P1;HPM_P2
2023/08/19 00:00:38;;;;;;;2.10;2.00;;;20.50;81.00;;;;;;6093034;23;20191;-87
2023/08/19 00:03:08;;;;;;;1.90;1.80;;;20.50;81.00;;;;;;6144896;23;20580;-87
2023/08/19 00:05:34;;;;;;;2.40;2.20;;;20.50;81.00;;;;;;6168159;23;20589;-87
2023/08/19 00:08:00;;;;;;;2.30;2.10;;;20.50;81.00;;;;;;6168344;23;20210;-87
2023/08/19 00:10:27;;;;;;;2.05;1.95;;;20.50;81.10;;;;;;6194588;23;20137;-87
2023/08/19 00:12:53;;;;;;;2.35;2.15;;;20.50;81.00;;;;;;6193902;23;20201;-87
2023/08/19 00:15:19;;;;;;;2.30;2.10;;;20.50;81.00;;;;;;6194023;23;20148;-86
2023/08/19 00:17:45;;;;;;;2.22;2.03;;;20.50;81.00;;;;;;6169268;23;20171;-87
2023/08/19 00:20:11;;;;;;;2.28;2.08;;;20.50;81.00;;;;;;6194503;23;20133;-87
2023/08/19 00:22:37;;;;;;;2.05;1.90;;;20.40;81.10;;;;;;6168957;23;20134;-87
2023/08/19 00:25:04;;;;;;;2.40;2.20;;;20.50;81.20;;;;;;6193987;23;20144;-87
2023/08/19 00:27:30;;;;;;;1.98;1.88;;;20.50;81.20;;;;;;6193248;23;20217;-88
2023/08/19 00:29:56;;;;;;;2.63;2.15;;;20.50;81.20;;;;;;6194157;23;20141;-87
2023/08/19 00:32:22;;;;;;;2.40;2.20;;;20.50;81.20;;;;;;6093370;23;20142;-87
2023/08/19 00:34:48;;;;;;;2.20;2.10;;;20.40;81.20;;;;;;6092576;23;20172;-87
2023/08/19 00:37:14;;;;;;;2.50;2.30;;;20.50;81.20;;;;;;6194239;23;20549;-87
2023/08/19 00:39:40;;;;;;;2.40;2.20;;;20.50;81.20;;;;;;6193972;23;20152;-86
2023/08/19 00:42:07;;;;;;;2.10;2.00;;;20.50;81.20;;;;;;6193778;23;20152;-87
2023/08/19 00:44:34;;;;;;;1.95;1.80;;;20.50;81.30;;;;;;6193064;23;20649;-87
2023/08/19 00:47:02;;;;;;;2.10;2.00;;;20.50;81.30;;;;;;6193948;23;20185;-87
2023/08/19 00:49:29;;;;;;;2.40;2.20;;;20.50;81.30;;;;;;6092950;23;20221;-87
2023/08/19 00:51:55;;;;;;;2.40;2.20;;;20.50;81.30;;;;;;6194335;23;20142;-87
2023/08/19 00:54:20;;;;;;;2.45;2.25;;;20.40;81.20;;;;;;6168689;23;20173;-87
2023/08/19 00:56:46;;;;;;;2.13;2.03;;;20.50;81.20;;;;;;6168986;23;20181;-87
2023/08/19 00:59:12;;;;;;;2.13;2.03;;;20.50;81.20;;;;;;6193924;23;20133;-87
2023/08/19 01:01:37;;;;;;;2.50;2.30;;;20.50;81.30;;;;;;6193756;23;20148;-87
2023/08/19 01:04:03;;;;;;;2.22;2.05;;;20.50;81.30;;;;;;6092790;23;20141;-87
2023/08/19 01:06:44;;;;;;;2.20;2.10;;;20.50;81.30;;;;;;6193611;23;20148;-87
2023/08/19 01:09:32;;;;;;;2.45;2.25;;;20.50;81.30;;;;;;6181092;23;20449;-87
2023/08/19 01:12:20;;;;;;;2.15;2.05;;;20.50;81.30;;;;;;6171634;23;20269;-87
2023/08/19 01:15:07;;;;;;;2.10;2.00;;;20.50;81.30;;;;;;6193827;23;20168;-87
2023/08/19 01:17:33;;;;;;;2.30;2.10;;;20.40;81.30;;;;;;6168413;23;20161;-87
2023/08/19 01:19:59;;;;;;;2.75;2.00;;;20.50;81.30;;;;;;6144100;23;20282;-87
2023/08/19 01:22:34;;;;;;;2.42;2.22;;;20.40;81.20;;;;;;6169057;23;20133;-87
2023/08/19 01:25:00;;;;;;;2.10;2.00;;;20.40;81.30;;;;;;6145180;23;20160;-87
2023/08/19 01:27:26;;;;;;;2.00;1.90;;;20.40;81.30;;;;;;6092728;23;20177;-87
2023/08/19 01:29:52;;;;;;;2.50;2.30;;;20.40;81.30;;;;;;6092944;23;20202;-87
2023/08/19 01:32:19;;;;;;;2.40;2.20;;;20.40;81.30;;;;;;6144051;23;20152;-87
2023/08/19 01:34:49;;;;;;;2.35;2.15;;;20.50;81.40;;;;;;6168067;23;20474;-87
2023/08/19 01:37:24;;;;;;;2.03;1.92;;;20.40;81.30;;;;;;6118296;23;20160;-87
2023/08/19 01:39:53;;;;;;;2.20;2.00;;;20.50;81.40;;;;;;6168200;23;20156;-87
2023/08/19 01:42:21;;;;;;;2.33;2.13;;;20.40;81.30;;;;;;6143061;23;20156;-87
2023/08/19 01:44:49;;;;;;;2.50;2.30;;;20.40;81.30;;;;;;6167544;23;20161;-87
2023/08/19 01:47:16;;;;;;;2.33;2.13;;;20.40;81.30;;;;;;6167542;23;20180;-87
2023/08/19 01:49:44;;;;;;;2.38;2.17;;;20.40;81.30;;;;;;6168058;23;20133;-88
2023/08/19 01:52:11;;;;;;;2.15;2.00;;;20.50;81.30;;;;;;6168432;23;20153;-87
2023/08/19 01:54:36;;;;;;;1.90;1.80;;;20.50;81.40;;;;;;6168477;23;20183;-87
2023/08/19 01:57:04;;;;;;;1.98;1.83;;;20.40;81.30;;;;;;6193027;23;20145;-87
2023/08/19 01:59:32;;;;;;;2.10;1.80;;;20.40;81.40;;;;;;6117744;23;20156;-87
2023/08/19 02:01:58;;;;;;;2.15;2.03;;;20.40;81.40;;;;;;6142136;23;20157;-87
2023/08/19 02:04:24;;;;;;;1.98;1.88;;;20.40;81.40;;;;;;6168251;23;20139;-87
2023/08/19 02:06:50;;;;;;;2.00;1.90;;;20.50;81.40;;;;;;6192339;23;20485;-88
2023/08/19 02:09:16;;;;;;;2.00;1.88;;;20.40;81.40;;;;;;6192835;23;20137;-87
2023/08/19 02:11:42;;;;;;;2.20;2.00;;;20.40;81.40;;;;;;6167773;23;20200;-87
2023/08/19 02:14:08;;;;;;;1.98;1.88;;;20.40;81.40;;;;;;6143540;23;20180;-87
2023/08/19 02:16:33;;;;;;;2.22;2.08;;;20.50;81.50;;;;;;6168357;23;20518;-87
2023/08/19 02:18:59;;;;;;;2.28;2.08;;;20.30;81.40;;;;;;6168194;23;20519;-88
2023/08/19 02:21:26;;;;;;;2.30;2.20;;;20.40;81.40;;;;;;6192510;23;20136;-87
2023/08/19 02:23:51;;;;;;;2.20;2.00;;;20.40;81.40;;;;;;6192820;23;20140;-87
2023/08/19 02:26:17;;;;;;;2.10;2.00;;;20.40;81.40;;;;;;6168506;23;20191;-87
2023/08/19 02:28:44;;;;;;;2.10;2.00;;;20.40;81.40;;;;;;6092607;23;20141;-87
2023/08/19 02:31:09;;;;;;;2.10;2.00;;;20.40;81.40;;;;;;6168340;23;20310;-86
2023/08/19 02:33:36;;;;;;;2.47;2.28;;;20.50;81.40;;;;;;6143349;23;20631;-87
2023/08/19 02:36:04;;;;;;;2.55;2.35;;;20.40;81.40;;;;;;6168071;23;20152;-87
2023/08/19 02:38:30;;;;;;;1.98;1.88;;;20.40;81.40;;;;;;6192952;23;20141;-87
2023/08/19 02:40:56;;;;;;;1.90;1.77;;;20.40;81.40;;;;;;6168406;23;20476;-87
2023/08/19 02:43:22;;;;;;;2.40;2.10;;;20.40;81.40;;;;;;6192445;23;20137;-87
2023/08/19 02:45:47;;;;;;;2.15;2.05;;;20.40;81.40;;;;;;6143428;23;20195;-87
2023/08/19 02:48:14;;;;;;;2.38;2.20;;;20.40;81.50;;;;;;6194669;23;20215;-87
2023/08/19 02:50:40;;;;;;;2.00;1.90;;;20.40;81.50;;;;;;6170076;23;20153;-88
2023/08/19 02:53:06;;;;;;;2.10;2.00;;;20.40;81.60;;;;;;6169682;23;20172;-87
2023/08/19 02:55:32;;;;;;;2.13;2.03;;;20.40;81.50;;;;;;6195031;23;20569;-87
2023/08/19 02:57:58;;;;;;;2.33;2.13;;;20.40;81.50;;;;;;6194281;23;20163;-87
2023/08/19 03:00:23;;;;;;;2.20;2.10;;;20.40;81.40;;;;;;6170046;23;20516;-86
2023/08/19 03:02:49;;;;;;;1.98;1.88;;;20.40;81.40;;;;;;6169615;23;20173;-87
2023/08/19 03:05:15;;;;;;;1.92;1.83;;;20.50;81.50;;;;;;6194631;23;20141;-87
2023/08/19 03:07:41;;;;;;;2.30;2.10;;;20.40;81.40;;;;;;6168800;23;20156;-87
2023/08/19 03:10:07;;;;;;;1.98;1.88;;;20.40;81.40;;;;;;6169815;23;20323;-87
2023/08/19 03:12:33;;;;;;;2.20;2.10;;;20.40;81.40;;;;;;6144470;23;20272;-88
2023/08/19 03:14:59;;;;;;;1.98;1.88;;;20.40;81.40;;;;;;6169827;23;20609;-87
2023/08/19 03:17:24;;;;;;;1.90;1.80;;;20.40;81.40;;;;;;6145074;23;20152;-87
2023/08/19 03:19:51;;;;;;;2.15;2.05;;;20.40;81.40;;;;;;6170073;23;20149;-87
2023/08/19 03:22:17;;;;;;;1.85;1.75;;;20.40;81.50;;;;;;6194428;23;20157;-87
2023/08/19 03:24:43;;;;;;;2.10;2.00;;;20.40;81.50;;;;;;6144945;23;20488;-87
2023/08/19 03:27:09;;;;;;;1.98;1.88;;;20.40;81.40;;;;;;6194916;23;20136;-87
2023/08/19 03:29:35;;;;;;;2.10;2.00;;;20.40;81.40;;;;;;6194461;23;20145;-87
2023/08/19 03:32:00;;;;;;;2.00;1.90;;;20.40;81.40;;;;;;6169467;23;20160;-87
2023/08/19 03:34:26;;;;;;;2.17;1.98;;;20.40;81.40;;;;;;6169668;23;20161;-87
2023/08/19 03:36:52;;;;;;;2.10;2.00;;;20.40;81.50;;;;;;6194437;23;20244;-86
2023/08/19 03:39:18;;;;;;;2.10;2.00;;;20.40;81.40;;;;;;6093502;23;20137;-86
2023/08/19 03:41:44;;;;;;;2.58;2.38;;;20.40;81.60;;;;;;6169144;23;20470;-87
2023/08/19 03:44:10;;;;;;;2.10;2.00;;;20.40;81.50;;;;;;6169669;23;20281;-87
2023/08/19 03:46:36;;;;;;;2.00;1.90;;;20.40;81.50;;;;;;6194125;23;20194;-87
2023/08/19 03:49:02;;;;;;;2.13;1.95;;;20.30;81.40;;;;;;6093496;23;20560;-87
2023/08/19 03:51:29;;;;;;;2.30;2.10;;;20.30;81.60;;;;;;6169671;23;20180;-87
2023/08/19 03:53:55;;;;;;;2.00;1.90;;;20.40;81.60;;;;;;6194255;23;20500;-87
2023/08/19 03:56:21;;;;;;;2.20;2.00;;;20.40;81.60;;;;;;6194563;23;20140;-86
2023/08/19 03:58:47;;;;;;;2.00;1.90;;;20.40;81.70;;;;;;6194334;23;20614;-87
2023/08/19 04:01:12;;;;;;;2.05;1.95;;;20.40;81.60;;;;;;6194373;23;20138;-87
2023/08/19 04:03:38;;;;;;;2.13;1.98;;;20.30;81.60;;;;;;6169626;23;20596;-87
2023/08/19 04:06:04;;;;;;;2.05;1.95;;;20.30;81.60;;;;;;6194415;23;20160;-87
2023/08/19 04:08:30;;;;;;;2.35;2.15;;;20.30;81.60;;;;;;6168718;23;20483;-87
2023/08/19 04:11:03;;;;;;;1.98;1.88;;;20.30;81.60;;;;;;6168979;23;20156;-87
2023/08/19 04:13:29;;;;;;;2.40;2.20;;;20.30;81.60;;;;;;6163801;23;20204;-87
2023/08/19 04:16:02;;;;;;;2.05;1.95;;;20.30;81.70;;;;;;6164852;23;20538;-87
2023/08/19 04:18:28;;;;;;;1.90;1.80;;;20.30;81.70;;;;;;6064138;23;20221;-87
2023/08/19 04:20:54;;;;;;;2.00;1.90;;;20.30;81.60;;;;;;6139442;23;20781;-87
2023/08/19 04:23:20;;;;;;;2.33;2.13;;;20.30;81.60;;;;;;6064142;23;20165;-88
2023/08/19 04:25:46;;;;;;;2.25;2.05;;;20.30;81.70;;;;;;6064308;23;20165;-87
2023/08/19 04:28:14;;;;;;;2.00;1.90;;;20.40;81.70;;;;;;6139481;23;20157;-86
2023/08/19 04:30:40;;;;;;;2.20;2.00;;;20.30;81.70;;;;;;6162658;23;20469;-87
2023/08/19 04:33:06;;;;;;;2.00;1.90;;;20.30;81.60;;;;;;6139409;23;20625;-87
2023/08/19 04:35:32;;;;;;;2.10;1.98;;;20.30;81.60;;;;;;6139560;23;20130;-88
2023/08/19 04:37:59;;;;;;;2.10;1.90;;;20.30;81.70;;;;;;6139102;23;20532;-88
2023/08/19 04:40:25;;;;;;;2.00;1.90;;;20.30;81.70;;;;;;6064248;23;20217;-87
2023/08/19 04:42:51;;;;;;;2.05;1.95;;;20.30;81.70;;;;;;6139462;23;20161;-88
2023/08/19 04:45:17;;;;;;;2.22;2.10;;;20.30;81.70;;;;;;6139632;23;20199;-88
2023/08/19 04:47:43;;;;;;;2.28;2.13;;;20.30;81.70;;;;;;6139104;23;20477;-88
2023/08/19 04:50:10;;;;;;;2.38;2.17;;;20.30;81.70;;;;;;6064505;23;20164;-88
2023/08/19 04:52:37;;;;;;;1.98;1.77;;;20.30;81.70;;;;;;6164429;23;20154;-88
2023/08/19 04:55:04;;;;;;;2.17;2.00;;;20.30;81.70;;;;;;6139266;23;20312;-88
2023/08/19 04:57:30;;;;;;;2.00;1.83;;;20.30;81.80;;;;;;6163724;23;20466;-87
2023/08/19 05:00:00;;;;;;;2.17;2.05;;;20.30;81.70;;;;;;6139450;23;20141;-88
2023/08/19 05:02:26;;;;;;;1.90;1.80;;;20.30;81.70;;;;;;6113803;23;20153;-88
2023/08/19 05:04:52;;;;;;;2.22;2.05;;;20.30;81.70;;;;;;6139372;23;20215;-87
2023/08/19 05:07:18;;;;;;;2.25;2.08;;;20.30;81.70;;;;;;6138355;23;20613;-87
2023/08/19 05:09:44;;;;;;;1.63;1.52;;;20.30;81.70;;;;;;6064362;23;20137;-87
2023/08/19 05:12:09;;;;;;;2.08;1.98;;;20.30;81.80;;;;;;6153722;23;20208;-87
2023/08/19 05:14:35;;;;;;;2.00;1.90;;;20.30;81.70;;;;;;6144003;23;20177;-86
2023/08/19 05:17:01;;;;;;;2.15;2.00;;;20.40;81.80;;;;;;6168804;23;20233;-87
2023/08/19 05:19:27;;;;;;;1.77;1.67;;;20.30;81.70;;;;;;6143989;23;20580;-87
2023/08/19 05:21:53;;;;;;;2.00;1.90;;;20.30;81.70;;;;;;6168452;23;20544;-87
2023/08/19 05:24:19;;;;;;;2.33;2.13;;;20.30;81.70;;;;;;6193634;23;20141;-86
2023/08/19 05:26:44;;;;;;;2.00;1.90;;;20.30;81.70;;;;;;6193961;23;20137;-87
2023/08/19 05:29:11;;;;;;;2.10;2.00;;;20.30;81.70;;;;;;6143938;23;20161;-86
2023/08/19 05:31:38;;;;;;;2.30;2.10;;;20.30;81.70;;;;;;6144036;23;20478;-86
2023/08/19 05:34:06;;;;;;;2.40;2.20;;;20.30;81.70;;;;;;6168619;23;20165;-87
2023/08/19 05:36:35;;;;;;;2.00;1.90;;;20.30;81.70;;;;;;6169195;23;20137;-87
2023/08/19 05:39:04;;;;;;;2.13;2.00;;;20.30;81.70;;;;;;6142515;23;20167;-87
2023/08/19 05:41:30;;;;;;;2.03;1.92;;;20.30;81.80;;;;;;6143104;23;20165;-87
2023/08/19 05:43:58;;;;;;;2.28;2.13;;;20.30;81.70;;;;;;6193212;23;20263;-88
2023/08/19 05:46:24;;;;;;;2.00;1.90;;;20.30;81.70;;;;;;6142652;23;20165;-87
2023/08/19 05:48:52;;;;;;;1.67;1.58;;;20.30;81.70;;;;;;6168915;23;20226;-87
2023/08/19 05:51:17;;;;;;;1.80;1.70;;;20.30;81.70;;;;;;6142499;23;20160;-87
2023/08/19 05:53:43;;;;;;;2.00;1.90;;;20.30;81.70;;;;;;6143502;23;20497;-88
2023/08/19 05:56:09;;;;;;;1.98;1.88;;;20.30;81.70;;;;;;6195112;23;20145;-87
2023/08/19 05:58:35;;;;;;;2.33;1.95;;;20.30;81.70;;;;;;6153788;23;20231;-87
2023/08/19 06:01:03;;;;;;;1.77;1.67;;;20.40;81.70;;;;;;6103685;23;20148;-87
2023/08/19 06:03:30;;;;;;;1.90;1.80;;;20.40;81.70;;;;;;6154720;23;20176;-87
2023/08/19 06:05:57;;;;;;;2.00;1.90;;;20.30;81.70;;;;;;6153524;23;20161;-87
2023/08/19 06:08:24;;;;;;;2.20;2.00;;;20.30;81.70;;;;;;6153209;23;20157;-87
2023/08/19 06:11:08;;;;;;;2.17;2.00;;;20.30;81.70;;;;;;6150218;23;20186;-87
2023/08/19 06:13:38;;;;;;;2.28;2.08;;;20.40;81.70;;;;;;6113215;23;20189;-87
2023/08/19 06:16:09;;;;;;;1.95;1.85;;;20.40;81.60;;;;;;6113338;23;20157;-86
2023/08/19 06:18:39;;;;;;;1.80;1.70;;;20.30;81.60;;;;;;6113179;23;20158;-87
2023/08/19 06:21:05;;;;;;;2.10;2.00;;;20.30;81.60;;;;;;6112947;23;20153;-87
2023/08/19 06:23:33;;;;;;;1.95;1.85;;;20.40;81.70;;;;;;6138732;23;20144;-86
2023/08/19 06:26:01;;;;;;;1.90;1.80;;;20.30;81.60;;;;;;6112970;23;20157;-86
2023/08/19 06:28:27;;;;;;;2.17;2.03;;;20.30;81.60;;;;;;6137569;23;20161;-87
2023/08/19 06:30:53;;;;;;;2.10;1.63;;;20.30;81.60;;;;;;6163666;23;20213;-86
2023/08/19 06:33:20;;;;;;;2.08;1.98;;;20.30;81.60;;;;;;6138361;23;20145;-86
2023/08/19 06:35:50;;;;;;;2.10;2.00;;;20.30;81.60;;;;;;6112780;23;20598;-88
2023/08/19 06:38:23;;;;;;;2.28;2.08;;;20.40;81.60;;;;;;6113268;23;20157;-86
2023/08/19 06:40:56;;;;;;;2.10;2.00;;;20.40;81.70;;;;;;6113635;23;20161;-87
2023/08/19 06:43:26;;;;;;;1.88;1.73;;;20.30;81.60;;;;;;6114552;23;20153;-88
2023/08/19 06:45:55;;;;;;;1.83;1.73;;;20.30;82.60;;;;;;6113011;23;20184;-87
2023/08/19 06:48:22;;;;;;;2.10;2.00;;;20.40;81.80;;;;;;6140101;23;20141;-87
2023/08/19 06:50:51;;;;;;;2.00;1.90;;;20.50;81.60;;;;;;6138443;23;20160;-88
2023/08/19 06:53:19;;;;;;;1.90;1.80;;;20.40;81.50;;;;;;6088756;23;20158;-87
2023/08/19 06:55:56;;;;;;;1.90;1.80;;;20.50;81.70;;;;;;6112964;23;20165;-89
2023/08/19 06:58:26;;;;;;;2.13;1.95;;;20.50;81.60;;;;;;6091920;23;20157;-88
2023/08/19 07:00:58;;;;;;;2.00;1.90;;;20.50;81.80;;;;;;6138521;23;20540;-87
2023/08/19 07:03:30;;;;;;;2.05;1.92;;;20.50;81.80;;;;;;6137945;23;20212;-87
2023/08/19 07:05:57;;;;;;;1.90;1.80;;;20.40;81.90;;;;;;6139100;23;20244;-87
2023/08/19 07:08:23;;;;;;;2.20;2.00;;;20.40;82.20;;;;;;6114194;23;20154;-86
2023/08/19 07:10:50;;;;;;;2.10;2.00;;;20.40;82.20;;;;;;6139749;23;20446;-86
2023/08/19 07:13:16;;;;;;;1.83;1.73;;;20.40;82.40;;;;;;6237609;23;20212;-88
2023/08/19 07:15:44;;;;;;;1.80;1.70;;;20.30;82.60;;;;;;6169848;23;20142;-87
2023/08/19 07:18:10;;;;;;;1.80;1.70;;;20.40;82.80;;;;;;6219460;23;20232;-86
2023/08/19 07:20:36;;;;;;;2.00;1.80;;;20.40;82.80;;;;;;6247767;23;20130;-87
2023/08/19 07:23:03;;;;;;;1.73;1.63;;;20.40;82.90;;;;;;6194634;23;20140;-88
2023/08/19 07:25:29;;;;;;;2.05;1.95;;;20.30;82.90;;;;;;6218433;23;20211;-87
2023/08/19 07:27:54;;;;;;;2.25;2.05;;;20.30;83.10;;;;;;6193182;23;20148;-87
2023/08/19 07:30:21;;;;;;;1.90;1.80;;;20.30;83.20;;;;;;6193762;23;20153;-86
2023/08/19 07:32:47;;;;;;;1.67;1.58;;;20.30;83.20;;;;;;6194073;23;20134;-87
2023/08/19 07:35:13;;;;;;;2.03;1.85;;;20.30;83.40;;;;;;6247760;23;20204;-87
2023/08/19 07:37:39;;;;;;;1.95;1.85;;;20.30;83.50;;;;;;6220635;23;20134;-87
2023/08/19 07:40:09;;;;;;;1.83;1.73;;;20.30;83.90;;;;;;6247144;23;20168;-87
2023/08/19 07:42:39;;;;;;;2.10;1.90;;;20.30;83.70;;;;;;6144960;23;20592;-88
2023/08/19 07:45:06;;;;;;;2.10;1.98;;;20.30;83.80;;;;;;6144930;23;20251;-87
2023/08/19 07:47:33;;;;;;;2.22;1.77;;;20.40;84.10;;;;;;6195519;23;20157;-88
2023/08/19 07:49:58;;;;;;;1.83;1.73;;;20.30;84.00;;;;;;6220380;23;20142;-87
2023/08/19 07:52:24;;;;;;;2.30;2.10;;;20.30;84.30;;;;;;6170504;23;20172;-86
2023/08/19 07:54:50;;;;;;;2.20;2.00;;;20.30;84.40;;;;;;6171229;23;20178;-88
2023/08/19 07:57:20;;;;;;;2.15;1.95;;;20.30;84.40;;;;;;6197161;23;20153;-88
2023/08/19 07:59:45;;;;;;;1.90;1.80;;;20.30;84.50;;;;;;6196576;23;20153;-87
2023/08/19 08:02:11;;;;;;;2.08;1.98;;;20.30;84.70;;;;;;6196778;23;20518;-87
2023/08/19 08:04:37;;;;;;;1.90;1.80;;;20.30;84.50;;;;;;6172136;23;20227;-87
2023/08/19 08:07:03;;;;;;;2.30;2.10;;;20.40;84.50;;;;;;6221077;23;20138;-88
2023/08/19 08:09:29;;;;;;;2.30;2.10;;;20.40;84.30;;;;;;6222784;23;20612;-87
2023/08/19 08:11:54;;;;;;;2.15;2.00;;;20.40;84.50;;;;;;6172641;23;20188;-88
2023/08/19 08:14:20;;;;;;;2.10;1.90;;;20.40;84.40;;;;;;6172563;23;20192;-88
2023/08/19 08:16:46;;;;;;;2.53;1.90;;;20.50;84.50;;;;;;6148471;23;20197;-87
2023/08/19 08:19:12;;;;;;;2.20;2.00;;;20.50;84.40;;;;;;6197107;23;20156;-87
2023/08/19 08:21:38;;;;;;;2.03;1.90;;;20.50;84.20;;;;;;6173241;23;20184;-88
2023/08/19 08:24:05;;;;;;;2.22;2.03;;;20.50;84.50;;;;;;6174393;23;20133;-88
2023/08/19 08:26:34;;;;;;;2.30;2.10;;;20.50;84.30;;;;;;6098969;23;20141;-87
2023/08/19 08:29:03;;;;;;;2.25;2.08;;;20.50;85.10;;;;;;6148384;23;20504;-88
2023/08/19 08:31:32;;;;;;;1.85;1.75;;;20.50;84.30;;;;;;6172832;23;20167;-88
2023/08/19 08:33:57;;;;;;;2.05;1.92;;;20.40;84.50;;;;;;6173109;23;20180;-89
2023/08/19 08:36:23;;;;;;;2.20;2.00;;;20.50;84.60;;;;;;6173498;23;20159;-87
2023/08/19 08:38:51;;;;;;;2.08;1.85;;;20.40;84.40;;;;;;6197894;23;20144;-87
2023/08/19 08:41:18;;;;;;;2.00;1.90;;;20.50;84.70;;;;;;6172123;23;20155;-88
2023/08/19 08:43:43;;;;;;;2.08;1.98;;;20.50;84.40;;;;;;6197099;23;20137;-87
2023/08/19 08:46:09;;;;;;;3.35;2.25;;;20.50;84.20;;;;;;6173702;23;20491;-87
2023/08/19 08:48:35;;;;;;;2.22;2.03;;;20.50;84.20;;;;;;6198699;23;20141;-88
2023/08/19 08:51:02;;;;;;;2.30;2.10;;;20.40;84.40;;;;;;6172199;23;20149;-87
2023/08/19 08:53:30;;;;;;;2.28;2.08;;;20.40;84.50;;;;;;6169115;23;20183;-86
2023/08/19 08:55:57;;;;;;;2.15;1.95;;;20.40;84.40;;;;;;6145193;23;20152;-87
2023/08/19 08:58:24;;;;;;;2.42;2.22;;;20.40;84.50;;;;;;6171104;23;20203;-87
2023/08/19 09:00:49;;;;;;;2.38;2.17;;;20.40;84.80;;;;;;6146709;23;20195;-87
2023/08/19 09:03:20;;;;;;;2.25;2.05;;;20.30;84.60;;;;;;6199553;23;20133;-87
2023/08/19 09:05:52;;;;;;;2.30;2.10;;;20.40;84.70;;;;;;6123822;23;20160;-87
2023/08/19 09:08:36;;;;;;;2.40;2.20;;;20.40;84.70;;;;;;6147626;23;20157;-87
2023/08/19 09:11:02;;;;;;;2.47;2.28;;;20.40;84.70;;;;;;6153325;23;20665;-86
2023/08/19 09:13:29;;;;;;;2.50;2.30;;;20.40;84.70;;;;;;6173627;23;20149;-87
2023/08/19 09:15:55;;;;;;;2.50;2.30;;;20.40;84.70;;;;;;6197954;23;20153;-88
2023/08/19 09:18:22;;;;;;;2.42;2.22;;;20.50;84.70;;;;;;6197886;23;20244;-87
2023/08/19 09:20:49;;;;;;;2.33;2.13;;;20.50;84.70;;;;;;6249124;23;20133;-89
2023/08/19 09:23:15;;;;;;;2.45;2.25;;;20.50;84.60;;;;;;6197331;23;20978;-88
2023/08/19 09:25:41;;;;;;;2.53;2.33;;;20.50;84.50;;;;;;6175276;23;20153;-88
2023/08/19 09:28:07;;;;;;;2.60;2.40;;;20.50;84.70;;;;;;6197562;23;20153;-87
2023/08/19 09:30:33;;;;;;;2.47;2.28;;;20.50;84.60;;;;;;6195661;23;20157;-88
2023/08/19 09:32:59;;;;;;;2.28;2.08;;;20.50;84.50;;;;;;6170286;23;20153;-87
2023/08/19 09:35:25;;;;;;;2.60;2.40;;;20.50;84.40;;;;;;6196242;23;20244;-88
2023/08/19 09:37:51;;;;;;;2.63;2.42;;;20.50;84.30;;;;;;6220200;23;20271;-86
2023/08/19 09:40:21;;;;;;;2.40;2.20;;;20.50;84.30;;;;;;6219769;23;20157;-88
2023/08/19 09:42:48;;;;;;;2.60;2.40;;;20.60;84.10;;;;;;6219947;23;20207;-88
2023/08/19 09:45:18;;;;;;;2.50;2.30;;;20.70;83.80;;;;;;6194345;23;20584;-88
2023/08/19 09:47:48;;;;;;;2.70;2.50;;;20.60;83.80;;;;;;6219746;23;20134;-88
2023/08/19 09:50:15;;;;;;;2.30;2.10;;;20.60;83.80;;;;;;6170292;23;20216;-88
2023/08/19 09:52:41;;;;;;;2.47;2.28;;;20.70;83.80;;;;;;6247226;23;20142;-87
2023/08/19 09:55:07;;;;;;;2.50;2.30;;;20.60;83.80;;;;;;6195287;23;20171;-89
2023/08/19 09:57:33;;;;;;;2.85;2.55;;;20.70;83.80;;;;;;6219763;23;20126;-88
2023/08/19 10:00:00;;;;;;;2.60;2.40;;;20.70;83.70;;;;;;6196497;23;20133;-88
2023/08/19 10:02:25;;;;;;;2.80;2.40;;;20.70;83.80;;;;;;6195491;23;20141;-89
2023/08/19 10:04:51;;;;;;;2.47;2.28;;;20.70;83.80;;;;;;6193685;23;20161;-88
2023/08/19 10:07:17;;;;;;;2.40;2.20;;;20.70;84.50;;;;;;6218222;23;20133;-87
2023/08/19 10:09:42;;;;;;;2.40;2.20;;;20.70;83.60;;;;;;6168880;23;20157;-88
2023/08/19 10:12:10;;;;;;;2.60;2.35;;;20.80;83.70;;;;;;6192673;23;20204;-88
2023/08/19 10:14:35;;;;;;;2.40;2.20;;;20.70;83.50;;;;;;6193498;23;20193;-89
2023/08/19 10:17:05;;;;;;;2.50;2.30;;;20.70;83.60;;;;;;6172918;23;20156;-88
2023/08/19 10:19:56;;;;;;;2.50;2.30;;;20.70;83.60;;;;;;6170539;23;20157;-89
2023/08/19 10:22:48;;;;;;;2.70;2.50;;;20.70;83.60;;;;;;6172760;23;20216;-88
2023/08/19 10:25:14;;;;;;;2.63;2.42;;;20.70;83.50;;;;;;6115083;23;20180;-88
2023/08/19 10:28:06;;;;;;;2.67;2.47;;;20.70;83.50;;;;;;6163762;23;20613;-88
2023/08/19 10:30:32;;;;;;;2.50;2.30;;;20.70;83.50;;;;;;6170125;23;20158;-88
2023/08/19 10:33:04;;;;;;;2.50;2.30;;;20.70;83.50;;;;;;6216367;23;20142;-86
2023/08/19 10:36:05;;;;;;;2.70;2.50;;;20.80;83.60;;;;;;6162886;23;20552;-87
2023/08/19 10:38:55;;;;;;;2.55;2.35;;;20.80;83.60;;;;;;6139181;23;20200;-87
2023/08/19 10:41:38;;;;;;;2.53;2.33;;;20.70;83.60;;;;;;6141588;23;20165;-87
2023/08/19 10:44:07;;;;;;;2.50;2.30;;;20.70;83.80;;;;;;6140703;23;20152;-87
2023/08/19 10:46:37;;;;;;;2.55;2.35;;;20.70;83.80;;;;;;6189293;23;20653;-87
2023/08/19 10:49:04;;;;;;;3.10;2.53;;;20.80;83.80;;;;;;6188484;23;20138;-87
2023/08/19 10:51:51;;;;;;;2.63;2.42;;;20.80;83.70;;;;;;6163897;23;20146;-87
2023/08/19 10:54:27;;;;;;;3.33;2.20;;;20.80;83.70;;;;;;6194246;23;20191;-88
2023/08/19 10:57:08;;;;;;;2.90;2.50;;;20.70;83.70;;;;;;6145178;23;20149;-87
2023/08/19 10:59:36;;;;;;;3.72;2.60;;;20.70;83.60;;;;;;6170724;23;20153;-87
2023/08/19 11:02:04;;;;;;;2.85;2.63;;;20.70;83.70;;;;;;6144002;23;20175;-87
2023/08/19 11:04:32;;;;;;;2.72;2.53;;;20.80;83.80;;;;;;6143090;23;20160;-87
2023/08/19 11:06:59;;;;;;;2.60;2.40;;;20.70;83.80;;;;;;6143099;23;20160;-87
2023/08/19 11:09:28;;;;;;;2.50;2.30;;;20.80;83.70;;;;;;6145199;23;20161;-88
2023/08/19 11:11:56;;;;;;;2.50;2.30;;;20.80;83.70;;;;;;6141735;23;20243;-87
2023/08/19 11:14:23;;;;;;;2.65;2.42;;;20.80;83.60;;;;;;6165901;23;20170;-87
2023/08/19 11:16:53;;;;;;;2.55;2.35;;;20.70;83.50;;;;;;6165777;23;20177;-88
2023/08/19 11:19:19;;;;;;;3.00;2.65;;;20.80;83.60;;;;;;6143503;23;20150;-87
2023/08/19 11:21:46;;;;;;;3.00;2.70;;;20.80;83.60;;;;;;6143031;23;20149;-87
2023/08/19 11:24:12;;;;;;;2.42;2.22;;;20.80;83.60;;;;;;6167071;23;20165;-87
2023/08/19 11:26:40;;;;;;;2.60;2.40;;;20.80;83.50;;;;;;6142750;23;20165;-87
2023/08/19 11:29:06;;;;;;;3.00;2.70;;;20.80;83.50;;;;;;6143611;23;20157;-87
2023/08/19 11:31:33;;;;;;;2.70;2.50;;;20.80;83.40;;;;;;6166230;23;20140;-87
2023/08/19 11:34:00;;;;;;;2.83;2.45;;;20.90;83.40;;;;;;6166532;23;20177;-87
2023/08/19 11:36:28;;;;;;;2.67;2.42;;;20.90;83.40;;;;;;6117206;23;20150;-87
2023/08/19 11:38:55;;;;;;;2.67;2.47;;;20.80;83.20;;;;;;6116705;23;20605;-87
2023/08/19 11:41:21;;;;;;;2.50;2.30;;;20.90;83.20;;;;;;6115260;23;20157;-87
2023/08/19 11:43:50;;;;;;;2.80;2.60;;;20.90;83.10;;;;;;6166339;23;20224;-87
2023/08/19 11:46:16;;;;;;;2.72;2.53;;;20.90;83.00;;;;;;6140270;23;20166;-88
2023/08/19 11:48:42;;;;;;;2.50;2.30;;;20.90;83.70;;;;;;6165503;23;20141;-86
2023/08/19 11:51:10;;;;;;;3.17;2.42;;;20.90;82.80;;;;;;6165549;23;20142;-87
2023/08/19 11:53:36;;;;;;;2.72;2.53;;;20.90;82.90;;;;;;6164632;23;20141;-87
2023/08/19 11:56:02;;;;;;;3.03;2.72;;;20.80;82.80;;;;;;6140231;23;20154;-87
2023/08/19 11:58:49;;;;;;;2.92;2.60;;;20.90;82.80;;;;;;6164813;23;20134;-88
2023/08/19 12:01:15;;;;;;;2.60;2.30;;;20.80;82.80;;;;;;6140591;23;20154;-89
2023/08/19 12:03:44;;;;;;;2.75;2.55;;;20.90;82.90;;;;;;6140186;23;20240;-87
2023/08/19 12:06:10;;;;;;;2.60;2.40;;;20.90;82.90;;;;;;6165616;23;20562;-87
2023/08/19 12:08:39;;;;;;;3.22;2.80;;;20.90;82.80;;;;;;6164670;23;20138;-87
2023/08/19 12:11:04;;;;;;;2.70;2.33;;;20.90;82.90;;;;;;6147725;23;20153;-88
2023/08/19 12:13:30;;;;;;;2.97;2.67;;;20.90;82.90;;;;;;6253999;23;20149;-88
2023/08/19 12:15:56;;;;;;;2.90;2.60;;;20.90;82.80;;;;;;6201935;23;20145;-88
2023/08/19 12:18:22;;;;;;;2.70;2.38;;;20.90;82.80;;;;;;6228592;23;20137;-88
2023/08/19 12:20:49;;;;;;;2.80;2.60;;;20.90;82.80;;;;;;6228191;23;20244;-87
2023/08/19 12:23:14;;;;;;;2.80;2.58;;;20.90;82.90;;;;;;6198611;23;20159;-88
2023/08/19 12:25:48;;;;;;;2.58;2.38;;;20.90;82.80;;;;;;6248599;23;20453;-87
2023/08/19 12:28:16;;;;;;;2.80;2.53;;;20.90;82.80;;;;;;6171499;23;20528;-87
2023/08/19 12:30:42;;;;;;;2.78;2.47;;;20.90;82.80;;;;;;6194838;23;20176;-87
2023/08/19 12:33:08;;;;;;;2.83;2.60;;;20.90;82.90;;;;;;6196618;23;20130;-87
2023/08/19 12:35:35;;;;;;;2.83;2.60;;;20.90;82.90;;;;;;6224289;23;20165;-87
2023/08/19 12:38:04;;;;;;;3.00;2.70;;;20.90;83.00;;;;;;6198734;23;20484;-88
2023/08/19 12:40:30;;;;;;;2.92;2.63;;;20.90;82.90;;;;;;6224422;23;20564;-88
2023/08/19 12:42:56;;;;;;;2.85;2.55;;;20.90;82.80;;;;;;6250676;23;20130;-87
2023/08/19 12:45:22;;;;;;;3.03;2.72;;;20.90;82.80;;;;;;6220085;23;20452;-87
2023/08/19 12:47:48;;;;;;;3.15;2.85;;;20.90;82.90;;;;;;6219418;23;20524;-87
2023/08/19 12:50:15;;;;;;;2.78;2.58;;;20.90;82.80;;;;;;6169530;23;20232;-88